Time;durP1;ratioP1;P1;durP2;ratioP2;P2;SDS_P1;SDS_P2;PMS_P1;PMS_P2;Temp;Humidity;BMP_temperature;BMP_pressure;BME280_temperature;BME280_humidity;BME280_pressure;Samples;Min_cycle;Max_cycle;Signal;HPM_P1;HPM_P2
2022/05/05 00:01:32;;;;;;;6.70;6.10;;;16.40;99.90;;;;;;5047244;28;20204;-67
2022/05/05 00:04:00;;;;;;;7.73;7.17;;;16.40;99.90;;;;;;5047460;28;20200;-66
2022/05/05 00:06:27;;;;;;;6.73;6.23;;;16.40;99.90;;;;;;5047658;28;20322;-67
2022/05/05 00:08:54;;;;;;;6.67;6.17;;;16.40;99.90;;;;;;5047306;28;20208;-66
2022/05/05 00:14:27;;;;;;;6.27;5.60;;;16.40;99.90;;;;;;5047328;28;20199;-66
2022/05/05 00:17:12;;;;;;;6.37;5.77;;;16.40;99.90;;;;;;5047557;28;20196;-66
2022/05/05 00:19:42;;;;;;;6.40;5.67;;;16.40;99.90;;;;;;5047484;28;20676;-66
2022/05/05 00:22:11;;;;;;;6.07;5.57;;;16.40;99.90;;;;;;5047821;28;20295;-67
2022/05/05 00:24:38;;;;;;;6.33;5.83;;;16.30;99.90;;;;;;5066068;28;20212;-67
2022/05/05 00:27:06;;;;;;;5.90;5.50;;;16.30;99.90;;;;;;5047636;28;20298;-69
2022/05/05 00:29:32;;;;;;;5.50;5.10;;;16.30;99.90;;;;;;5063358;28;20215;-69
2022/05/05 00:32:13;;;;;;;6.10;5.60;;;16.30;99.90;;;;;;5067614;28;20205;-69
2022/05/05 00:34:51;;;;;;;5.83;5.37;;;16.30;99.90;;;;;;5067537;28;20211;-68
2022/05/05 00:37:32;;;;;;;6.20;5.67;;;16.20;99.90;;;;;;5066989;28;20712;-69
2022/05/05 00:40:01;;;;;;;6.00;5.40;;;15.70;99.90;;;;;;5067164;28;20231;-69
2022/05/05 00:42:28;;;;;;;5.07;4.67;;;15.70;99.90;;;;;;5066733;28;20230;-69
2022/05/05 00:44:55;;;;;;;5.73;4.93;;;15.80;99.90;;;;;;5047758;28;20282;-69
2022/05/05 00:47:22;;;;;;;4.70;4.30;;;15.90;99.90;;;;;;5047286;28;20235;-69
2022/05/05 00:49:59;;;;;;;4.57;4.10;;;15.90;99.90;;;;;;5047290;28;20613;-69
2022/05/05 00:52:26;;;;;;;5.40;4.00;;;15.90;99.90;;;;;;5059402;28;20203;-69
2022/05/05 00:54:53;;;;;;;6.00;4.50;;;15.90;99.90;;;;;;5067075;28;20240;-67
2022/05/05 00:57:19;;;;;;;3.97;3.63;;;16.00;99.90;;;;;;5067195;28;20694;-67
2022/05/05 00:59:55;;;;;;;6.93;4.17;;;15.90;99.90;;;;;;5066847;28;20707;-68
2022/05/05 01:02:22;;;;;;;3.97;3.67;;;15.90;99.90;;;;;;5067310;28;20191;-68
2022/05/05 01:04:50;;;;;;;4.60;3.83;;;15.90;99.90;;;;;;5067323;28;20264;-68
2022/05/05 01:07:18;;;;;;;6.97;3.27;;;15.90;99.90;;;;;;5067256;28;20227;-67
2022/05/05 01:09:45;;;;;;;6.03;3.67;;;15.90;99.90;;;;;;5066847;28;20568;-68
2022/05/05 01:12:12;;;;;;;4.43;3.97;;;15.90;99.90;;;;;;5067365;28;20268;-67
2022/05/05 01:14:39;;;;;;;6.80;3.43;;;15.90;99.90;;;;;;5065860;28;20207;-67
2022/05/05 01:17:12;;;;;;;5.40;3.67;;;15.90;99.90;;;;;;5049350;28;20246;-67
2022/05/05 01:19:38;;;;;;;7.53;3.77;;;15.90;99.90;;;;;;5046998;28;20708;-67
2022/05/05 01:22:06;;;;;;;8.70;3.77;;;15.80;99.90;;;;;;5046926;28;20241;-67
2022/05/05 01:30:04;;;;;;;3.60;3.30;;;15.70;99.90;;;;;;5067061;28;20183;-67
2022/05/05 01:32:31;;;;;;;5.47;4.20;;;15.70;99.90;;;;;;5069857;28;20261;-68
2022/05/05 01:34:58;;;;;;;4.37;3.97;;;15.70;99.90;;;;;;5066660;28;20223;-68
2022/05/05 01:37:36;;;;;;;7.97;3.90;;;15.70;99.90;;;;;;5050349;28;20212;-70
2022/05/05 01:40:06;;;;;;;3.90;3.60;;;15.70;99.90;;;;;;5061505;28;20238;-68
2022/05/05 01:42:33;;;;;;;5.13;3.90;;;15.60;99.90;;;;;;5070534;28;20203;-68
2022/05/05 01:44:59;;;;;;;5.30;3.70;;;15.50;99.90;;;;;;5070298;28;20253;-66
2022/05/05 01:47:26;;;;;;;6.20;4.13;;;15.50;99.90;;;;;;5065880;28;20241;-66
2022/05/05 01:49:58;;;;;;;5.63;4.03;;;15.50;99.90;;;;;;5070153;28;20208;-68
2022/05/05 01:52:24;;;;;;;6.30;4.20;;;15.50;99.90;;;;;;5057911;28;20221;-68
2022/05/05 01:54:52;;;;;;;9.67;4.47;;;15.50;99.90;;;;;;5049926;28;20212;-68
2022/05/05 01:57:19;;;;;;;5.47;4.50;;;15.50;99.90;;;;;;5050093;28;20216;-68
2022/05/05 01:59:50;;;;;;;6.50;4.30;;;15.50;99.90;;;;;;5050389;28;20253;-68
2022/05/05 02:02:17;;;;;;;5.50;4.23;;;15.40;99.90;;;;;;5051812;28;20215;-68
2022/05/05 02:04:44;;;;;;;7.57;5.20;;;15.40;99.90;;;;;;5051070;28;20231;-67
2022/05/05 02:07:10;;;;;;;7.67;4.90;;;15.10;99.90;;;;;;5049841;28;20231;-67
2022/05/05 02:09:37;;;;;;;5.83;4.70;;;15.10;99.90;;;;;;5057580;28;20208;-67
2022/05/05 02:12:06;;;;;;;7.43;4.73;;;15.20;99.90;;;;;;5070205;28;20211;-67
2022/05/05 02:14:33;;;;;;;8.37;4.57;;;15.20;99.90;;;;;;5069706;28;20261;-68
2022/05/05 02:16:59;;;;;;;7.93;4.67;;;15.20;99.90;;;;;;5069701;28;20257;-67
2022/05/05 02:19:26;;;;;;;5.67;4.70;;;15.20;99.90;;;;;;5069455;28;20705;-68
2022/05/05 02:21:53;;;;;;;5.53;4.70;;;15.30;99.90;;;;;;5059687;28;20200;-68
2022/05/05 02:24:19;;;;;;;5.07;4.57;;;15.30;99.90;;;;;;5049247;28;20216;-68
2022/05/05 02:26:46;;;;;;;9.57;4.50;;;15.20;99.90;;;;;;5049587;28;20208;-68
2022/05/05 02:29:14;;;;;;;7.00;4.77;;;15.20;99.90;;;;;;5049523;28;20208;-68
2022/05/05 02:31:40;;;;;;;5.00;4.33;;;15.20;99.90;;;;;;5049580;28;20282;-68
2022/05/05 02:34:09;;;;;;;6.63;5.00;;;15.20;99.90;;;;;;5048422;28;20731;-68
2022/05/05 02:39:20;;;;;;;6.70;4.50;;;15.10;99.90;;;;;;5067206;28;20199;-70
2022/05/05 02:41:47;;;;;;;6.53;4.67;;;15.00;99.90;;;;;;5061469;28;20261;-70
2022/05/05 02:44:15;;;;;;;4.73;4.23;;;15.00;99.90;;;;;;5046638;28;20269;-69
2022/05/05 02:46:42;;;;;;;5.13;4.37;;;15.00;99.90;;;;;;5047374;28;20682;-69
2022/05/05 02:49:09;;;;;;;8.83;4.93;;;15.00;99.90;;;;;;5061537;28;20573;-69
2022/05/05 02:51:36;;;;;;;5.60;4.80;;;15.00;99.90;;;;;;5062001;28;20216;-69
2022/05/05 02:56:47;;;;;;;6.50;4.93;;;15.10;99.90;;;;;;5047200;28;20354;-69
2022/05/05 02:59:16;;;;;;;7.07;4.67;;;15.00;99.90;;;;;;5064346;28;20209;-69
2022/05/05 03:01:42;;;;;;;5.67;5.10;;;15.10;99.90;;;;;;5067291;28;20211;-69
2022/05/05 03:04:09;;;;;;;5.63;5.13;;;15.10;99.90;;;;;;5066923;28;20199;-69
2022/05/05 03:06:36;;;;;;;7.70;4.60;;;15.10;99.90;;;;;;5067092;28;20235;-69
2022/05/05 03:09:03;;;;;;;5.70;4.67;;;15.00;99.90;;;;;;5065581;28;20210;-69
2022/05/05 03:11:29;;;;;;;5.27;4.87;;;15.00;99.90;;;;;;5065683;28;20268;-70
2022/05/05 03:13:56;;;;;;;8.73;5.23;;;15.00;99.90;;;;;;5067739;28;20208;-70
2022/05/05 03:16:24;;;;;;;6.40;5.13;;;15.00;99.90;;;;;;5063892;28;20239;-70
2022/05/05 03:18:51;;;;;;;7.57;5.33;;;14.90;99.90;;;;;;5066643;28;20265;-70
2022/05/05 03:21:17;;;;;;;7.77;5.50;;;14.80;99.90;;;;;;5063946;28;21203;-69
2022/05/05 03:23:44;;;;;;;6.07;5.13;;;14.70;99.90;;;;;;5059099;28;20214;-70
2022/05/05 03:26:10;;;;;;;5.83;5.33;;;14.70;99.90;;;;;;5067375;28;20230;-70
2022/05/05 03:28:37;;;;;;;5.90;5.30;;;14.70;99.90;;;;;;5067006;28;20269;-70
2022/05/05 03:31:07;;;;;;;7.50;5.90;;;14.80;99.90;;;;;;5067254;28;20277;-69
2022/05/05 03:33:36;;;;;;;6.93;5.27;;;14.70;99.90;;;;;;5067949;28;20212;-70
2022/05/05 03:36:06;;;;;;;8.97;6.43;;;14.80;99.90;;;;;;5068211;28;20231;-69
2022/05/05 03:38:33;;;;;;;5.47;4.97;;;14.80;99.90;;;;;;5067604;28;20853;-69
2022/05/05 03:41:00;;;;;;;6.50;5.90;;;14.70;99.90;;;;;;5067571;28;20239;-70
2022/05/05 03:43:26;;;;;;;6.03;5.40;;;14.70;99.90;;;;;;5047920;28;20200;-69
2022/05/05 03:45:53;;;;;;;9.60;6.10;;;14.70;99.90;;;;;;5047955;28;20278;-70
2022/05/05 03:48:20;;;;;;;7.93;5.80;;;14.70;99.90;;;;;;5047742;28;20208;-70
2022/05/05 03:50:48;;;;;;;7.40;6.27;;;14.70;99.90;;;;;;5048030;28;20273;-70
2022/05/05 03:53:15;;;;;;;5.60;5.13;;;14.70;99.90;;;;;;5066634;28;20433;-69
2022/05/05 03:55:41;;;;;;;8.27;5.50;;;14.70;99.90;;;;;;5067464;28;20239;-70
2022/05/05 03:58:08;;;;;;;7.40;5.87;;;14.70;99.90;;;;;;5067613;28;20252;-69
2022/05/05 04:00:35;;;;;;;6.53;5.90;;;14.70;99.90;;;;;;5067879;28;20204;-70
2022/05/05 04:05:45;;;;;;;6.30;5.80;;;14.70;99.90;;;;;;5067432;28;20796;-69
2022/05/05 04:08:13;;;;;;;8.90;5.97;;;14.70;99.90;;;;;;5067096;28;20586;-70
2022/05/05 04:10:40;;;;;;;6.13;5.53;;;14.70;99.90;;;;;;5067615;28;20204;-70
2022/05/05 04:13:07;;;;;;;7.07;6.13;;;14.60;99.90;;;;;;5067189;28;20616;-70
2022/05/05 04:15:34;;;;;;;6.67;6.00;;;14.60;99.90;;;;;;5067701;28;20270;-70
2022/05/05 04:18:01;;;;;;;7.23;6.50;;;14.60;99.90;;;;;;5068203;28;20250;-70
2022/05/05 04:20:28;;;;;;;6.83;6.30;;;14.50;99.90;;;;;;5067728;28;20261;-70
2022/05/05 04:22:56;;;;;;;6.77;6.07;;;14.50;99.90;;;;;;5057345;28;20218;-70
2022/05/05 04:25:24;;;;;;;7.47;6.63;;;14.40;99.90;;;;;;5067354;28;20272;-70
2022/05/05 04:27:52;;;;;;;7.50;6.70;;;14.30;99.90;;;;;;5067663;28;20214;-70
2022/05/05 04:30:18;;;;;;;8.27;6.40;;;14.30;99.90;;;;;;5067608;28;20207;-70
2022/05/05 04:32:45;;;;;;;7.37;6.67;;;14.20;99.90;;;;;;5080189;28;20222;-70
2022/05/05 04:35:13;;;;;;;8.60;6.10;;;14.30;99.90;;;;;;5088086;28;20260;-70
2022/05/05 04:37:40;;;;;;;6.77;6.17;;;14.20;99.90;;;;;;5087704;28;20236;-69
2022/05/05 04:40:08;;;;;;;6.80;6.20;;;14.30;99.90;;;;;;5075046;28;20672;-70
2022/05/05 04:42:37;;;;;;;8.47;6.43;;;14.20;99.90;;;;;;5067345;28;20218;-70
2022/05/05 04:45:04;;;;;;;6.70;6.10;;;14.30;99.90;;;;;;5067388;28;20212;-70
2022/05/05 04:47:32;;;;;;;9.23;6.57;;;14.30;99.90;;;;;;5067595;28;20280;-70
2022/05/05 04:49:59;;;;;;;6.93;6.23;;;14.30;99.90;;;;;;5067244;28;20215;-70
2022/05/05 04:52:28;;;;;;;10.83;7.17;;;14.40;99.90;;;;;;5066984;28;20444;-69
2022/05/05 04:54:54;;;;;;;7.27;6.50;;;14.40;99.90;;;;;;5066911;28;20658;-69
2022/05/05 04:57:21;;;;;;;6.40;5.80;;;14.50;99.90;;;;;;5066628;28;20701;-69
2022/05/05 04:59:49;;;;;;;7.63;6.63;;;14.50;99.90;;;;;;5067248;28;20204;-69
2022/05/05 05:02:16;;;;;;;8.83;6.57;;;14.50;99.90;;;;;;5067275;28;20215;-69
2022/05/05 05:04:43;;;;;;;7.40;6.77;;;14.50;99.90;;;;;;5067017;28;20654;-69
2022/05/05 05:07:09;;;;;;;6.67;5.97;;;14.50;99.90;;;;;;5069712;28;20277;-69
2022/05/05 05:09:36;;;;;;;6.13;5.53;;;14.50;99.90;;;;;;5065657;28;20321;-69
2022/05/05 05:12:03;;;;;;;10.23;6.80;;;14.50;99.90;;;;;;5070468;28;20204;-69
2022/05/05 05:14:30;;;;;;;7.47;6.40;;;14.50;99.90;;;;;;5071132;28;20265;-69
2022/05/05 05:16:58;;;;;;;6.73;6.13;;;14.50;99.90;;;;;;5070691;28;20243;-69
2022/05/05 05:19:27;;;;;;;7.90;6.30;;;14.50;99.90;;;;;;5070848;28;20214;-69
2022/05/05 05:22:02;;;;;;;6.77;6.10;;;14.50;99.90;;;;;;5062968;28;20204;-69
2022/05/05 05:24:29;;;;;;;6.83;6.07;;;14.50;99.90;;;;;;5068443;28;20599;-69
2022/05/05 05:26:56;;;;;;;10.17;6.37;;;14.50;99.90;;;;;;5070663;28;20689;-69
2022/05/05 05:29:23;;;;;;;7.37;6.47;;;14.50;99.90;;;;;;5070589;28;20203;-69
2022/05/05 05:31:49;;;;;;;6.67;5.97;;;14.60;99.90;;;;;;5070760;28;20214;-69
2022/05/05 05:34:17;;;;;;;6.37;5.77;;;14.60;99.90;;;;;;5070706;28;20211;-69
2022/05/05 05:36:44;;;;;;;8.87;6.40;;;14.60;99.90;;;;;;5070773;28;20257;-69
2022/05/05 05:39:11;;;;;;;7.23;6.53;;;14.60;99.90;;;;;;5070170;28;20200;-70
2022/05/05 05:41:39;;;;;;;7.97;7.17;;;14.60;99.90;;;;;;5069634;28;20240;-69
2022/05/05 05:44:06;;;;;;;8.27;6.87;;;14.60;99.90;;;;;;5070098;28;20708;-69
2022/05/05 05:46:36;;;;;;;7.13;6.43;;;14.50;99.90;;;;;;5070078;28;20211;-69
2022/05/05 05:49:04;;;;;;;7.27;6.37;;;14.40;99.90;;;;;;5070373;28;20215;-69
2022/05/05 05:51:41;;;;;;;8.43;6.50;;;14.40;99.90;;;;;;5070039;28;20256;-69
2022/05/05 05:54:08;;;;;;;7.57;6.93;;;14.50;99.90;;;;;;5069888;28;20195;-69
2022/05/05 05:56:53;;;;;;;7.37;6.60;;;14.50;99.90;;;;;;5069837;28;20332;-69
2022/05/05 05:59:20;;;;;;;7.93;6.63;;;14.50;99.90;;;;;;5069961;28;20202;-69
2022/05/05 06:04:31;;;;;;;9.43;6.43;;;14.50;99.90;;;;;;5069714;28;20198;-69
2022/05/05 06:07:00;;;;;;;7.43;6.50;;;14.60;99.90;;;;;;5067637;28;20283;-69
2022/05/05 06:09:28;;;;;;;8.37;6.23;;;14.70;99.90;;;;;;5069551;28;20207;-69
2022/05/05 06:11:55;;;;;;;8.17;6.10;;;14.70;99.90;;;;;;5069866;28;20210;-69
2022/05/05 06:14:21;;;;;;;8.07;6.70;;;14.80;99.90;;;;;;5069609;28;20759;-69
2022/05/05 06:16:50;;;;;;;8.33;6.80;;;14.70;99.90;;;;;;5069834;28;20368;-69
2022/05/05 06:19:16;;;;;;;10.20;7.03;;;14.60;99.90;;;;;;5070016;28;20216;-69
2022/05/05 06:21:43;;;;;;;8.80;6.33;;;14.60;99.90;;;;;;5069442;28;20703;-69
2022/05/05 06:24:12;;;;;;;8.10;6.93;;;14.70;99.90;;;;;;5069255;28;20696;-69
2022/05/05 06:26:39;;;;;;;7.70;6.90;;;14.80;99.90;;;;;;5069161;28;20696;-69
2022/05/05 06:29:10;;;;;;;8.60;7.33;;;14.70;99.90;;;;;;5069512;28;20280;-69
2022/05/05 06:31:37;;;;;;;9.00;6.83;;;14.60;99.90;;;;;;5069319;28;20754;-69
2022/05/05 06:34:05;;;;;;;10.97;6.60;;;14.70;99.90;;;;;;5069339;28;20811;-69
2022/05/05 06:36:34;;;;;;;7.83;6.37;;;14.80;99.90;;;;;;5055540;28;20282;-69
2022/05/05 06:39:01;;;;;;;6.60;6.00;;;14.90;99.90;;;;;;5049288;28;20208;-69
2022/05/05 06:41:30;;;;;;;10.23;6.77;;;14.90;99.90;;;;;;5048774;28;20236;-70
2022/05/05 06:43:57;;;;;;;7.57;6.70;;;14.90;99.90;;;;;;5049315;28;20207;-69
2022/05/05 06:46:24;;;;;;;9.77;6.30;;;14.80;99.90;;;;;;5049265;28;20200;-69
2022/05/05 06:48:55;;;;;;;6.80;6.10;;;14.80;99.90;;;;;;5049365;28;20291;-69
2022/05/05 06:51:22;;;;;;;7.27;6.17;;;15.00;99.90;;;;;;5052158;28;20661;-69
2022/05/05 06:53:49;;;;;;;11.50;6.30;;;15.10;99.90;;;;;;5068901;28;20670;-69
2022/05/05 06:56:15;;;;;;;9.33;6.17;;;15.10;99.90;;;;;;5068492;28;20626;-69
2022/05/05 06:58:45;;;;;;;6.67;6.03;;;15.10;99.90;;;;;;5069024;28;20226;-69
2022/05/05 07:06:36;;;;;;;8.93;6.17;;;15.30;99.90;;;;;;5048342;28;20641;-69
2022/05/05 07:11:48;;;;;;;9.47;6.50;;;15.30;99.90;;;;;;5048398;28;20207;-69
2022/05/05 07:14:16;;;;;;;6.70;5.90;;;15.30;99.90;;;;;;5048692;28;20208;-69
2022/05/05 07:16:52;;;;;;;8.93;6.33;;;15.20;99.90;;;;;;5057988;28;20384;-69
2022/05/05 07:19:20;;;;;;;7.13;6.40;;;15.20;99.90;;;;;;5068296;28;20199;-69
2022/05/05 07:21:53;;;;;;;7.23;6.50;;;15.30;99.90;;;;;;5068188;28;20219;-69
2022/05/05 07:24:22;;;;;;;7.83;6.33;;;15.40;99.90;;;;;;5067360;28;20660;-69
2022/05/05 07:26:52;;;;;;;10.73;6.30;;;15.30;99.90;;;;;;5068040;28;20673;-69
2022/05/05 07:29:29;;;;;;;7.97;6.83;;;15.30;99.90;;;;;;5067552;28;20195;-69
2022/05/05 07:31:58;;;;;;;8.70;7.20;;;15.10;99.90;;;;;;5067252;28;20195;-69
2022/05/05 07:34:40;;;;;;;11.63;7.13;;;14.90;99.90;;;;;;5068186;28;20239;-69
2022/05/05 07:37:09;;;;;;;7.23;6.27;;;14.90;99.90;;;;;;5068353;28;20227;-69
2022/05/05 07:39:39;;;;;;;7.47;6.57;;;14.90;99.90;;;;;;5066976;28;20664;-69
2022/05/05 07:42:08;;;;;;;7.90;6.40;;;15.00;99.90;;;;;;5067787;28;20199;-69
2022/05/05 07:44:37;;;;;;;8.63;6.20;;;15.00;99.90;;;;;;5068176;28;20207;-69
2022/05/05 07:47:05;;;;;;;7.80;6.50;;;15.10;99.90;;;;;;5068010;28;20219;-69
2022/05/05 07:49:32;;;;;;;7.77;6.30;;;15.30;99.90;;;;;;5067884;28;20208;-69
2022/05/05 07:51:58;;;;;;;9.10;6.27;;;15.40;99.90;;;;;;5067896;28;20216;-69
2022/05/05 07:54:38;;;;;;;8.63;6.37;;;15.60;99.90;;;;;;5067509;28;20253;-69
2022/05/05 07:57:08;;;;;;;7.87;6.33;;;15.70;99.90;;;;;;5066008;28;20247;-69
2022/05/05 07:59:37;;;;;;;8.17;6.50;;;15.70;99.90;;;;;;5063953;28;20212;-69
2022/05/05 08:02:13;;;;;;;8.60;6.60;;;16.00;99.90;;;;;;5067831;28;20215;-69
2022/05/05 08:04:39;;;;;;;10.07;6.17;;;15.80;99.90;;;;;;5067743;28;20195;-69
2022/05/05 08:07:06;;;;;;;7.27;5.80;;;15.80;99.90;;;;;;5067799;28;20249;-69
2022/05/05 08:09:33;;;;;;;9.33;6.30;;;15.80;99.90;;;;;;5067542;28;20213;-69
2022/05/05 08:12:00;;;;;;;7.07;6.37;;;15.80;99.90;;;;;;5067867;28;20213;-69
2022/05/05 08:14:34;;;;;;;7.10;5.80;;;15.80;99.90;;;;;;5067612;28;20662;-70
2022/05/05 08:17:02;;;;;;;8.60;6.47;;;15.80;99.90;;;;;;5067805;28;20323;-69
2022/05/05 08:19:43;;;;;;;6.63;6.10;;;15.90;99.90;;;;;;5067301;28;20215;-69
2022/05/05 08:22:20;;;;;;;6.83;6.13;;;16.00;99.90;;;;;;5067621;28;20203;-69
2022/05/05 08:30:33;;;;;;;6.67;5.40;;;15.70;99.90;;;;;;5067193;28;20231;-69
2022/05/05 08:33:01;;;;;;;7.23;5.60;;;15.80;99.90;;;;;;5067306;28;20215;-69
2022/05/05 08:35:34;;;;;;;9.43;5.47;;;15.90;99.90;;;;;;5067235;28;20211;-69
2022/05/05 08:38:05;;;;;;;5.77;5.10;;;16.10;99.90;;;;;;5067161;28;20235;-69
2022/05/05 08:40:35;;;;;;;7.90;5.47;;;16.20;99.90;;;;;;5068468;28;20713;-69
2022/05/05 08:43:02;;;;;;;6.57;5.40;;;16.10;99.90;;;;;;5071025;28;20211;-69
2022/05/05 08:45:49;;;;;;;6.30;5.30;;;16.30;99.90;;;;;;5071341;28;20203;-69
2022/05/05 08:48:39;;;;;;;5.40;4.90;;;16.40;99.90;;;;;;5071596;28;20198;-69
2022/05/05 08:51:15;;;;;;;5.90;4.83;;;16.50;99.90;;;;;;5071074;28;20206;-69
2022/05/05 08:53:49;;;;;;;7.27;4.87;;;16.70;99.90;;;;;;5070305;28;20203;-69
2022/05/05 08:56:16;;;;;;;5.30;4.80;;;16.80;99.90;;;;;;5070885;28;20203;-69
2022/05/05 08:58:42;;;;;;;8.50;5.50;;;16.80;99.90;;;;;;5070830;28;20699;-69
2022/05/05 09:01:10;;;;;;;9.50;5.77;;;16.80;99.90;;;;;;5070563;28;20616;-69
2022/05/05 09:03:38;;;;;;;13.33;6.10;;;16.80;99.90;;;;;;5071084;28;20214;-69
2022/05/05 09:06:08;;;;;;;6.83;4.80;;;16.90;99.90;;;;;;5071023;28;20238;-69
2022/05/05 09:08:35;;;;;;;7.30;5.20;;;17.00;99.90;;;;;;5070529;28;20211;-69
2022/05/05 09:11:07;;;;;;;6.13;4.97;;;17.10;99.90;;;;;;5071127;28;20269;-69
2022/05/05 09:13:36;;;;;;;6.77;5.10;;;17.20;99.90;;;;;;5071087;28;20245;-69
2022/05/05 09:16:10;;;;;;;5.63;4.57;;;17.30;99.90;;;;;;5070924;28;20199;-69
2022/05/05 09:18:38;;;;;;;7.70;4.70;;;17.40;99.90;;;;;;5070528;28;20511;-69
2022/05/05 09:21:08;;;;;;;5.80;4.60;;;17.60;99.90;;;;;;5070830;28;20572;-69
2022/05/05 09:23:36;;;;;;;5.20;4.70;;;17.70;99.90;;;;;;5070261;28;20207;-69
2022/05/05 09:26:09;;;;;;;4.97;4.57;;;17.50;99.90;;;;;;5070792;28;20195;-69
2022/05/05 09:28:37;;;;;;;6.60;4.53;;;17.40;99.90;;;;;;5070446;28;20191;-69
2022/05/05 09:31:11;;;;;;;5.77;4.63;;;17.40;99.90;;;;;;5070533;28;20212;-69
2022/05/05 09:33:41;;;;;;;5.53;5.00;;;17.30;99.90;;;;;;5070135;28;20745;-69
2022/05/05 09:36:12;;;;;;;6.97;4.70;;;17.30;99.90;;;;;;5070574;28;20203;-69
2022/05/05 09:38:52;;;;;;;6.57;4.53;;;17.30;99.90;;;;;;5069872;28;20277;-69
2022/05/05 09:41:18;;;;;;;7.03;4.33;;;17.30;99.90;;;;;;5069693;28;20235;-70
2022/05/05 09:43:45;;;;;;;5.57;3.70;;;17.40;99.90;;;;;;5070402;28;20206;-69
2022/05/05 09:46:31;;;;;;;5.10;4.27;;;17.60;99.90;;;;;;5070412;28;20211;-70
2022/05/05 09:49:07;;;;;;;4.90;4.10;;;17.80;99.90;;;;;;5070127;28;20196;-69
2022/05/05 09:51:36;;;;;;;5.90;4.37;;;18.00;99.90;;;;;;5064422;28;20211;-69
2022/05/05 09:59:40;;;;;;;4.80;4.07;;;18.30;99.90;;;;;;5049804;28;20199;-69
2022/05/05 10:02:14;;;;;;;5.13;4.63;;;18.20;99.90;;;;;;5065345;28;20188;-69
2022/05/05 10:04:48;;;;;;;7.00;4.33;;;18.10;99.80;;;;;;5069979;28;20205;-69
2022/05/05 10:07:16;;;;;;;6.93;4.20;;;18.00;99.90;;;;;;5069783;28;20618;-69
2022/05/05 10:09:44;;;;;;;6.00;4.00;;;17.90;99.90;;;;;;5069812;28;20216;-69
2022/05/05 10:12:11;;;;;;;3.70;3.40;;;18.00;99.90;;;;;;5069484;28;20208;-69
2022/05/05 10:14:38;;;;;;;5.83;3.87;;;18.20;99.90;;;;;;5069780;28;20292;-69
2022/05/05 10:17:06;;;;;;;4.40;4.00;;;18.50;99.90;;;;;;5069653;28;20211;-69
2022/05/05 10:19:33;;;;;;;7.50;3.93;;;18.60;99.90;;;;;;5069555;28;20235;-69
2022/05/05 10:22:09;;;;;;;5.47;3.90;;;18.60;99.90;;;;;;5069593;28;20245;-69
2022/05/05 10:24:42;;;;;;;6.43;4.80;;;18.80;99.90;;;;;;5068951;28;20207;-69
2022/05/05 10:27:11;;;;;;;6.10;4.10;;;18.80;99.90;;;;;;5069607;28;20203;-69
2022/05/05 10:29:39;;;;;;;5.83;4.80;;;18.60;99.90;;;;;;5069481;28;20208;-69
2022/05/05 10:32:10;;;;;;;5.33;4.13;;;18.30;99.90;;;;;;5069507;28;20211;-69
2022/05/05 10:34:38;;;;;;;4.43;3.80;;;18.30;99.90;;;;;;5069223;28;20600;-69
2022/05/05 10:37:08;;;;;;;6.13;3.97;;;18.10;99.90;;;;;;5069393;28;20211;-69
2022/05/05 10:39:43;;;;;;;6.30;3.90;;;18.30;99.90;;;;;;5068643;28;20239;-69
2022/05/05 10:42:15;;;;;;;5.53;3.80;;;18.60;99.90;;;;;;5069157;28;20257;-69
2022/05/05 10:45:07;;;;;;;5.37;3.73;;;18.80;99.90;;;;;;5069168;28;20286;-69
2022/05/05 10:48:19;;;;;;;5.50;4.40;;;19.00;99.90;;;;;;5066810;28;20218;-69
2022/05/05 10:50:53;;;;;;;6.97;3.83;;;19.20;99.90;;;;;;5069060;28;20206;-69
2022/05/05 10:53:33;;;;;;;8.83;4.20;;;19.30;99.60;;;;;;5048535;28;20583;-69
2022/05/05 10:56:01;;;;;;;4.20;3.80;;;19.20;99.40;;;;;;5048569;28;20576;-69
2022/05/05 10:58:59;;;;;;;4.77;4.37;;;19.20;99.30;;;;;;5048460;28;20232;-69
2022/05/05 11:01:27;;;;;;;4.77;4.33;;;19.20;99.10;;;;;;5058067;28;20229;-69
2022/05/05 11:04:07;;;;;;;3.80;3.50;;;19.10;99.40;;;;;;5067693;28;20208;-69
2022/05/05 11:06:36;;;;;;;8.30;4.20;;;19.10;99.90;;;;;;5068391;28;20231;-69
2022/05/05 11:09:05;;;;;;;4.80;3.47;;;19.10;99.90;;;;;;5068449;28;20235;-69
2022/05/05 11:11:41;;;;;;;8.33;3.93;;;19.10;99.90;;;;;;5068576;28;20234;-69
2022/05/05 11:23:07;;;;;;;6.07;3.93;;;19.40;99.90;;;;;;5055257;28;20205;-69
2022/05/05 11:25:36;;;;;;;6.17;4.00;;;19.70;99.90;;;;;;5068405;28;20195;-69
2022/05/05 11:28:02;;;;;;;6.00;4.60;;;19.60;98.30;;;;;;5068456;28;20257;-69
2022/05/05 11:30:30;;;;;;;5.27;4.03;;;19.30;96.60;;;;;;5068325;28;20246;-69
2022/05/05 11:33:00;;;;;;;4.63;3.53;;;19.20;96.80;;;;;;5068307;28;20212;-69
2022/05/05 11:35:27;;;;;;;9.87;4.03;;;19.20;97.20;;;;;;5068548;28;20281;-69
2022/05/05 11:37:53;;;;;;;5.07;3.60;;;19.30;97.80;;;;;;5068103;28;20231;-69
2022/05/05 11:40:20;;;;;;;9.83;3.47;;;19.60;97.70;;;;;;5067547;28;20654;-69
2022/05/05 11:45:37;;;;;;;3.43;3.13;;;19.50;95.00;;;;;;5067695;28;20191;-69
2022/05/05 11:48:15;;;;;;;5.40;3.83;;;19.40;95.00;;;;;;5067921;28;20226;-69
2022/05/05 11:50:44;;;;;;;5.20;4.40;;;19.20;94.80;;;;;;5067830;28;20191;-69
2022/05/05 11:53:15;;;;;;;4.83;4.30;;;19.00;94.70;;;;;;5049465;28;20230;-69
2022/05/05 11:55:44;;;;;;;6.17;3.80;;;18.60;94.70;;;;;;5047767;28;20196;-69
2022/05/05 12:01:36;;;;;;;8.57;4.27;;;18.50;94.50;;;;;;5058820;28;20223;-69
2022/05/05 12:03:58;;;;;;;4.67;4.17;;;18.80;95.20;;;;;;5047429;28;20343;-69
2022/05/05 12:06:25;;;;;;;3.93;3.30;;;18.90;95.00;;;;;;5047325;28;20220;-69
2022/05/05 12:08:52;;;;;;;6.80;4.53;;;19.00;95.70;;;;;;5047419;28;20208;-69
2022/05/05 12:11:19;;;;;;;8.57;4.53;;;19.40;95.90;;;;;;5047544;28;20262;-69
2022/05/05 12:13:50;;;;;;;4.90;4.17;;;19.50;95.50;;;;;;5058876;28;20210;-69
2022/05/05 12:16:18;;;;;;;7.60;5.10;;;19.40;95.30;;;;;;5067471;28;20211;-69
2022/05/05 12:18:51;;;;;;;5.53;4.10;;;19.50;94.90;;;;;;5067311;28;20758;-69
2022/05/05 12:21:20;;;;;;;8.83;4.70;;;19.70;95.60;;;;;;5064938;28;20219;-69
2022/05/05 12:23:56;;;;;;;5.77;4.43;;;20.10;94.20;;;;;;5059950;28;20646;-69
2022/05/05 12:26:28;;;;;;;6.10;4.27;;;20.10;94.10;;;;;;5067199;28;20191;-69
2022/05/05 12:28:57;;;;;;;6.83;4.57;;;20.30;93.90;;;;;;5067316;28;20195;-69
2022/05/05 12:31:24;;;;;;;5.83;3.67;;;20.30;94.00;;;;;;5067279;28;20286;-70
2022/05/05 12:33:51;;;;;;;4.73;4.17;;;20.20;94.60;;;;;;5066797;28;20242;-69
2022/05/05 12:36:19;;;;;;;5.73;4.00;;;20.00;94.00;;;;;;5067421;28;20207;-69
2022/05/05 12:38:45;;;;;;;6.90;4.37;;;20.20;94.60;;;;;;5066283;28;20318;-69
2022/05/05 12:41:12;;;;;;;8.17;3.90;;;20.50;94.40;;;;;;5065430;28;20304;-69
2022/05/05 12:43:41;;;;;;;5.80;3.90;;;20.60;94.10;;;;;;5067071;28;20211;-69
2022/05/05 12:46:11;;;;;;;5.57;3.57;;;20.60;94.00;;;;;;5066846;28;20658;-70
2022/05/05 12:48:40;;;;;;;4.50;3.57;;;20.60;94.50;;;;;;5067045;28;20628;-69
2022/05/05 12:51:16;;;;;;;6.00;3.93;;;20.60;94.40;;;;;;5067244;28;20207;-69
2022/05/05 13:01:57;;;;;;;4.57;3.60;;;20.20;93.50;;;;;;5052930;28;20203;-70
2022/05/05 13:04:23;;;;;;;4.13;3.10;;;20.20;94.00;;;;;;5046964;28;20208;-69
2022/05/05 13:06:51;;;;;;;6.23;3.10;;;20.10;94.20;;;;;;5046506;28;20224;-69
2022/05/05 13:09:18;;;;;;;6.33;2.80;;;20.20;93.80;;;;;;5051371;28;20208;-69
2022/05/05 13:11:47;;;;;;;4.73;2.90;;;20.00;91.80;;;;;;5066994;28;20215;-69
2022/05/05 13:14:15;;;;;;;5.87;2.73;;;20.00;91.90;;;;;;5067428;28;20235;-69
2022/05/05 13:16:42;;;;;;;4.97;2.60;;;19.90;92.40;;;;;;5066901;28;20204;-69
2022/05/05 13:19:10;;;;;;;7.57;3.17;;;20.00;92.90;;;;;;5066935;28;20318;-69
2022/05/05 13:21:38;;;;;;;3.20;2.50;;;20.10;92.50;;;;;;5060849;28;20721;-69
2022/05/05 13:24:06;;;;;;;3.77;3.00;;;20.10;92.40;;;;;;5061895;28;20204;-69
2022/05/05 13:26:35;;;;;;;2.90;2.70;;;20.10;92.30;;;;;;5066601;28;20261;-69
2022/05/05 13:29:02;;;;;;;4.00;3.20;;;20.10;92.60;;;;;;5069920;28;20693;-69
2022/05/05 13:31:29;;;;;;;4.03;3.33;;;19.80;92.20;;;;;;5065248;28;20652;-69
2022/05/05 13:33:56;;;;;;;5.87;3.23;;;19.60;92.10;;;;;;5064577;28;20257;-69
2022/05/05 13:36:24;;;;;;;4.30;2.80;;;19.40;92.40;;;;;;5061251;28;20261;-68
2022/05/05 13:38:52;;;;;;;8.73;3.20;;;19.40;92.70;;;;;;5067782;28;20242;-68
2022/05/05 13:41:20;;;;;;;3.63;3.10;;;19.40;92.30;;;;;;5067539;28;20759;-69
2022/05/05 13:43:46;;;;;;;5.60;2.97;;;19.50;92.40;;;;;;5067959;28;20276;-68
2022/05/05 13:46:13;;;;;;;2.60;2.40;;;19.80;91.60;;;;;;5066983;28;20207;-68
2022/05/05 13:48:40;;;;;;;4.33;2.90;;;20.00;91.50;;;;;;5071906;28;20274;-68
2022/05/05 13:51:10;;;;;;;3.83;3.30;;;19.80;91.30;;;;;;5065202;28;20208;-69
2022/05/05 13:53:38;;;;;;;3.57;3.00;;;19.50;91.70;;;;;;5067927;28;20211;-69
2022/05/05 13:56:13;;;;;;;5.17;2.93;;;19.20;92.10;;;;;;5067700;28;20631;-69
2022/05/05 13:58:40;;;;;;;4.10;2.73;;;19.30;91.60;;;;;;5067569;28;20297;-69